Time;durP1;ratioP1;P1;durP2;ratioP2;P2;SDS_P1;SDS_P2;PMS_P1;PMS_P2;Temp;Humidity;BMP_temperature;BMP_pressure;BME280_temperature;BME280_humidity;BME280_pressure;Samples;Min_cycle;Max_cycle;Signal;HPM_P1;HPM_P2
2022/05/02 00:00:12;;;;;;;3.40;3.10;;;;;;;;;;4974564;28;20660;-81
2022/05/02 00:02:39;;;;;;;4.18;2.88;;;;;;;;;;4981918;28;20212;-82
2022/05/02 00:05:07;;;;;;;3.28;2.97;;;;;;;;;;4978758;28;20293;-82
2022/05/02 00:07:35;;;;;;;4.38;3.97;;;;;;;;;;4984038;28;20201;-82
2022/05/02 00:10:02;;;;;;;4.32;3.72;;;;;;;;;;4973385;28;20620;-83
2022/05/02 00:12:29;;;;;;;3.85;3.55;;;;;;;;;;4980698;28;20218;-81
2022/05/02 00:14:58;;;;;;;4.10;3.80;;;;;;;;;;4978253;28;20206;-81
2022/05/02 00:17:56;;;;;;;3.35;3.13;;;;;;;;;;4986863;28;20201;-81
2022/05/02 00:20:12;;;;;;;3.38;3.08;;;;;;;;;;4985636;28;20201;-81
2022/05/02 00:22:40;;;;;;;3.42;3.08;;;;;;;;;;4980478;28;20200;-82
2022/05/02 00:25:08;;;;;;;5.10;3.75;;;;;;;;;;4979960;28;20208;-82
2022/05/02 00:27:35;;;;;;;3.53;3.22;;;;;;;;;;4969499;28;20288;-82
2022/05/02 00:30:04;;;;;;;3.10;2.80;;;;;;;;;;4959016;28;20216;-82
2022/05/02 00:32:31;;;;;;;3.92;3.53;;;;;;;;;;4987723;28;20705;-82
2022/05/02 00:34:58;;;;;;;3.88;3.58;;;;;;;;;;4968169;28;20198;-82
2022/05/02 00:37:25;;;;;;;4.90;3.80;;;;;;;;;;4965657;28;20213;-82
2022/05/02 00:39:52;;;;;;;4.00;3.60;;;;;;;;;;4977148;28;20209;-82
2022/05/02 00:42:20;;;;;;;2.88;2.67;;;;;;;;;;4984320;28;20727;-83
2022/05/02 00:44:47;;;;;;;4.72;2.95;;;;;;;;;;4977160;28;20202;-82
2022/05/02 00:47:18;;;;;;;3.28;2.97;;;;;;;;;;4972962;28;20205;-83
2022/05/02 00:49:46;;;;;;;4.75;3.80;;;;;;;;;;4979313;28;20259;-82
2022/05/02 00:52:13;;;;;;;4.03;3.72;;;;;;;;;;4978094;28;20793;-81
2022/05/02 00:54:40;;;;;;;3.42;3.13;;;;;;;;;;4984855;28;20197;-82
2022/05/02 00:57:08;;;;;;;3.70;3.40;;;;;;;;;;4984060;28;20206;-82
2022/05/02 00:59:35;;;;;;;4.05;3.50;;;;;;;;;;4974339;28;20556;-82
2022/05/02 01:02:02;;;;;;;3.78;3.45;;;;;;;;;;4974583;28;20665;-82
2022/05/02 01:04:31;;;;;;;4.47;4.07;;;;;;;;;;4978703;28;20212;-82
2022/05/02 01:07:10;;;;;;;3.75;3.45;;;;;;;;;;4982091;28;20198;-82
2022/05/02 01:09:38;;;;;;;3.60;3.00;;;;;;;;;;4977305;28;20220;-81
2022/05/02 01:12:06;;;;;;;3.20;2.90;;;;;;;;;;4980725;28;20207;-82
2022/05/02 01:14:34;;;;;;;3.17;2.97;;;;;;;;;;4976880;28;20229;-82
2022/05/02 01:17:01;;;;;;;3.85;3.40;;;;;;;;;;4978050;28;20247;-82
2022/05/02 01:19:28;;;;;;;4.40;3.97;;;;;;;;;;4980259;28;20216;-81
2022/05/02 01:21:56;;;;;;;4.90;3.50;;;;;;;;;;4978693;28;20664;-81
2022/05/02 01:24:32;;;;;;;3.33;3.00;;;;;;;;;;4975477;28;20205;-82
2022/05/02 01:26:59;;;;;;;3.97;3.58;;;;;;;;;;4979204;28;20405;-84
2022/05/02 01:29:27;;;;;;;4.40;3.65;;;;;;;;;;4975782;28;20685;-82
2022/05/02 01:31:54;;;;;;;4.22;3.83;;;;;;;;;;4980886;28;20224;-83
2022/05/02 01:34:21;;;;;;;4.45;3.95;;;;;;;;;;4974687;28;20318;-81
2022/05/02 01:36:49;;;;;;;3.92;3.63;;;;;;;;;;4973000;28;20209;-81
2022/05/02 01:39:17;;;;;;;4.00;3.70;;;;;;;;;;4979454;28;20678;-80
2022/05/02 01:41:44;;;;;;;4.30;3.90;;;;;;;;;;4987707;28;20240;-81
2022/05/02 01:44:12;;;;;;;3.15;2.85;;;;;;;;;;4986291;28;21149;-84
2022/05/02 01:46:39;;;;;;;3.70;3.38;;;;;;;;;;4960523;28;20198;-84
2022/05/02 01:49:07;;;;;;;3.90;3.60;;;;;;;;;;4990338;28;20289;-82
2022/05/02 01:51:34;;;;;;;5.28;3.67;;;;;;;;;;4981811;28;20202;-82
2022/05/02 01:54:01;;;;;;;3.45;3.15;;;;;;;;;;4984157;28;20193;-84
2022/05/02 01:56:30;;;;;;;3.45;3.15;;;;;;;;;;4991091;28;20703;-81
2022/05/02 01:58:57;;;;;;;5.25;4.10;;;;;;;;;;4983438;28;20205;-81
2022/05/02 02:01:24;;;;;;;3.85;3.55;;;;;;;;;;4979593;28;20567;-82
2022/05/02 02:03:51;;;;;;;3.67;3.33;;;;;;;;;;4981786;28;20209;-82
2022/05/02 02:06:17;;;;;;;3.38;3.08;;;;;;;;;;4982563;28;20579;-82
2022/05/02 02:08:44;;;;;;;4.07;3.60;;;;;;;;;;4982102;28;20602;-82
2022/05/02 02:11:11;;;;;;;3.30;3.10;;;;;;;;;;4982583;28;20225;-83
2022/05/02 02:13:40;;;;;;;4.30;3.90;;;;;;;;;;4989288;28;20640;-82
2022/05/02 02:16:09;;;;;;;4.05;3.65;;;;;;;;;;4970118;28;20204;-83
2022/05/02 02:18:37;;;;;;;4.25;3.50;;;;;;;;;;4979640;28;20656;-81
2022/05/02 02:21:05;;;;;;;3.70;3.40;;;;;;;;;;4986433;28;20201;-83
2022/05/02 02:23:32;;;;;;;3.40;3.10;;;;;;;;;;4990155;28;20231;-84
2022/05/02 02:25:59;;;;;;;3.88;3.47;;;;;;;;;;4966268;28;20194;-83
2022/05/02 02:28:26;;;;;;;3.67;3.10;;;;;;;;;;4969984;28;20216;-82
2022/05/02 02:30:55;;;;;;;3.90;3.60;;;;;;;;;;4974205;28;20227;-83
2022/05/02 02:33:22;;;;;;;4.05;3.65;;;;;;;;;;4969788;28;20680;-83
2022/05/02 02:35:49;;;;;;;4.35;3.95;;;;;;;;;;4983192;28;20205;-86
2022/05/02 02:38:16;;;;;;;3.90;3.60;;;;;;;;;;4966024;28;20210;-84
2022/05/02 02:40:43;;;;;;;3.97;3.55;;;;;;;;;;4980001;28;20201;-84
2022/05/02 02:43:11;;;;;;;3.58;3.15;;;;;;;;;;4977034;28;20213;-83
2022/05/02 02:45:38;;;;;;;4.32;3.90;;;;;;;;;;4959972;28;20212;-82
2022/05/02 02:48:07;;;;;;;7.15;4.03;;;;;;;;;;4976218;28;20197;-83
2022/05/02 02:50:34;;;;;;;6.25;4.32;;;;;;;;;;4990795;28;20607;-82
2022/05/02 02:53:01;;;;;;;5.18;3.92;;;;;;;;;;4971965;28;20204;-81
2022/05/02 02:55:28;;;;;;;6.70;4.05;;;;;;;;;;4977729;28;20205;-83
2022/05/02 02:57:55;;;;;;;3.58;3.28;;;;;;;;;;4985018;28;20201;-83
2022/05/02 03:00:22;;;;;;;4.20;3.90;;;;;;;;;;4967998;28;20668;-81
2022/05/02 03:02:50;;;;;;;4.55;4.13;;;;;;;;;;4988424;28;20207;-81
2022/05/02 03:08:03;;;;;;;5.43;3.65;;;;;;;;;;4970447;28;20238;-85
2022/05/02 03:10:31;;;;;;;4.50;4.13;;;;;;;;;;4956619;28;20225;-85
2022/05/02 03:12:58;;;;;;;4.55;4.05;;;;;;;;;;4978739;28;20209;-86
2022/05/02 03:15:25;;;;;;;4.75;3.70;;;;;;;;;;4972835;28;20205;-81
2022/05/02 03:17:52;;;;;;;5.18;4.68;;;;;;;;;;4981968;28;20220;-82
2022/05/02 03:20:21;;;;;;;5.90;3.67;;;;;;;;;;4988312;28;20694;-82
2022/05/02 03:22:49;;;;;;;4.47;3.85;;;;;;;;;;4978634;28;20200;-83
2022/05/02 03:25:16;;;;;;;4.82;3.92;;;;;;;;;;4990669;28;20199;-82
2022/05/02 03:27:43;;;;;;;4.60;4.20;;;;;;;;;;4977022;28;20204;-82
2022/05/02 03:30:11;;;;;;;3.67;3.38;;;;;;;;;;4979354;28;20221;-80
2022/05/02 03:32:38;;;;;;;7.32;4.57;;;;;;;;;;4980000;28;20202;-81
2022/05/02 03:35:05;;;;;;;3.75;3.45;;;;;;;;;;4982693;28;20587;-83
2022/05/02 03:37:34;;;;;;;3.85;3.40;;;;;;;;;;4972923;28;20470;-83
2022/05/02 03:40:01;;;;;;;4.30;3.90;;;;;;;;;;4963581;28;20670;-81
2022/05/02 03:42:28;;;;;;;4.07;3.72;;;;;;;;;;4976216;28;22128;-85
2022/05/02 03:44:55;;;;;;;3.70;3.40;;;;;;;;;;4977736;28;20202;-84
2022/05/02 03:47:22;;;;;;;3.97;3.58;;;;;;;;;;4965582;28;20198;-84
2022/05/02 03:49:49;;;;;;;4.65;4.10;;;;;;;;;;4982447;28;20236;-85
2022/05/02 03:52:16;;;;;;;4.32;3.95;;;;;;;;;;4983665;28;20223;-84
2022/05/02 03:54:45;;;;;;;4.25;3.85;;;;;;;;;;4971547;28;20629;-83
2022/05/02 03:57:12;;;;;;;4.10;3.70;;;;;;;;;;4988902;28;20208;-84
2022/05/02 03:59:39;;;;;;;4.35;3.38;;;;;;;;;;4975457;28;20205;-83
2022/05/02 04:02:06;;;;;;;4.30;4.00;;;;;;;;;;4983967;28;20221;-84
2022/05/02 04:04:33;;;;;;;3.42;3.08;;;;;;;;;;4985323;28;20208;-84
2022/05/02 04:07:00;;;;;;;3.88;3.42;;;;;;;;;;4978903;28;20735;-83
2022/05/02 04:09:28;;;;;;;3.67;3.35;;;;;;;;;;4986857;28;20196;-82
2022/05/02 04:11:56;;;;;;;3.78;3.47;;;;;;;;;;4979842;28;20229;-83
2022/05/02 04:14:28;;;;;;;4.90;4.47;;;;;;;;;;4961163;28;20224;-83
2022/05/02 04:16:55;;;;;;;5.07;4.63;;;;;;;;;;4982762;28;20201;-83
2022/05/02 04:19:22;;;;;;;7.28;5.30;;;;;;;;;;4991422;28;20204;-83
2022/05/02 04:21:49;;;;;;;4.53;4.13;;;;;;;;;;4980578;28;20201;-82
2022/05/02 04:24:17;;;;;;;3.85;3.55;;;;;;;;;;4985227;28;20212;-83
2022/05/02 04:26:44;;;;;;;4.15;3.75;;;;;;;;;;4971234;28;20198;-83
2022/05/02 04:29:13;;;;;;;3.13;2.90;;;;;;;;;;4985532;28;20783;-82
2022/05/02 04:31:40;;;;;;;4.15;3.75;;;;;;;;;;4973755;28;20607;-84
2022/05/02 04:34:07;;;;;;;4.60;4.20;;;;;;;;;;4988463;28;20209;-85
2022/05/02 04:36:34;;;;;;;4.75;3.80;;;;;;;;;;4972300;28;20198;-83
2022/05/02 04:39:01;;;;;;;4.80;4.40;;;;;;;;;;4975471;28;20207;-84
2022/05/02 04:41:28;;;;;;;3.90;3.60;;;;;;;;;;4988301;28;20725;-81
2022/05/02 04:43:55;;;;;;;4.18;3.80;;;;;;;;;;4972158;28;20197;-82
2022/05/02 04:46:24;;;;;;;4.30;3.90;;;;;;;;;;4977497;28;20223;-80
2022/05/02 04:48:51;;;;;;;4.93;4.32;;;;;;;;;;4980800;28;20259;-82
2022/05/02 04:51:18;;;;;;;4.30;3.90;;;;;;;;;;4968894;28;20205;-82
2022/05/02 04:53:45;;;;;;;5.00;4.53;;;;;;;;;;4977433;28;20197;-84
2022/05/02 04:56:12;;;;;;;4.80;4.10;;;;;;;;;;4984716;28;20204;-84
2022/05/02 04:58:40;;;;;;;4.63;3.97;;;;;;;;;;4987248;28;20208;-86
2022/05/02 05:01:07;;;;;;;4.85;4.45;;;;;;;;;;4974544;28;20214;-83
2022/05/02 05:03:36;;;;;;;6.88;4.05;;;;;;;;;;4985532;28;20201;-86
2022/05/02 05:06:03;;;;;;;4.68;3.83;;;;;;;;;;4983782;28;20677;-82
2022/05/02 05:08:30;;;;;;;6.20;3.88;;;;;;;;;;4984079;28;20259;-83
2022/05/02 05:11:03;;;;;;;4.22;3.83;;;;;;;;;;4983125;28;20224;-84
2022/05/02 05:13:40;;;;;;;4.88;4.32;;;;;;;;;;4981041;28;20683;-84
2022/05/02 05:16:22;;;;;;;4.60;3.83;;;;;;;;;;4977419;28;20204;-84
2022/05/02 05:18:58;;;;;;;4.30;3.88;;;;;;;;;;4988648;28;20200;-83
2022/05/02 05:21:41;;;;;;;6.47;4.97;;;;;;;;;;4976659;28;20279;-84
2022/05/02 05:24:25;;;;;;;4.45;3.72;;;;;;;;;;4981842;28;20200;-84
2022/05/02 05:26:58;;;;;;;3.70;3.40;;;;;;;;;;4977396;28;20690;-83
2022/05/02 05:29:30;;;;;;;3.90;3.38;;;;;;;;;;4971302;28;20653;-81
2022/05/02 05:31:59;;;;;;;3.83;3.50;;;;;;;;;;4980938;28;20225;-82
2022/05/02 05:34:39;;;;;;;4.75;4.35;;;;;;;;;;4982086;28;20197;-83
2022/05/02 05:37:24;;;;;;;4.40;4.00;;;;;;;;;;4970535;28;20291;-82
2022/05/02 05:39:57;;;;;;;4.00;3.70;;;;;;;;;;4960541;28;20206;-82
2022/05/02 05:42:30;;;;;;;4.35;3.95;;;;;;;;;;4978532;28;20753;-83
2022/05/02 05:45:00;;;;;;;4.70;3.70;;;;;;;;;;4980361;28;20604;-82
2022/05/02 05:47:38;;;;;;;4.57;3.70;;;;;;;;;;4966903;28;20711;-82
2022/05/02 05:50:12;;;;;;;3.50;3.20;;;;;;;;;;4979716;28;20205;-82
2022/05/02 05:52:47;;;;;;;5.65;4.28;;;;;;;;;;4969687;28;20675;-82
2022/05/02 05:55:17;;;;;;;3.78;3.47;;;;;;;;;;4975024;28;20722;-82
2022/05/02 05:57:50;;;;;;;7.00;4.35;;;;;;;;;;4978876;28;20264;-84
2022/05/02 06:00:18;;;;;;;7.00;3.90;;;;;;;;;;4987153;28;20722;-88
2022/05/02 06:02:49;;;;;;;4.13;3.72;;;;;;;;;;4984526;28;20287;-87
2022/05/02 06:05:18;;;;;;;4.30;3.90;;;;;;;;;;4978982;28;20196;-85
2022/05/02 06:07:46;;;;;;;4.75;4.30;;;;;;;;;;4974636;28;20659;-84
2022/05/02 06:10:15;;;;;;;7.38;5.07;;;;;;;;;;4989755;28;20909;-86
2022/05/02 06:12:43;;;;;;;5.05;4.40;;;;;;;;;;4974322;28;20216;-87
2022/05/02 06:20:45;;;;;;;4.55;4.00;;;;;;;;;;4957389;28;20279;-83
2022/05/02 06:23:13;;;;;;;4.72;3.70;;;;;;;;;;4980566;28;20288;-83
2022/05/02 06:25:40;;;;;;;3.92;3.50;;;;;;;;;;4985527;28;20205;-84
2022/05/02 06:28:09;;;;;;;7.68;3.78;;;;;;;;;;4979485;28;20232;-86
2022/05/02 06:30:37;;;;;;;4.07;3.65;;;;;;;;;;4963446;28;20226;-86
2022/05/02 06:33:07;;;;;;;5.05;3.80;;;;;;;;;;4976115;28;20628;-83
2022/05/02 06:35:37;;;;;;;4.55;3.00;;;;;;;;;;4971994;28;20205;-86
2022/05/02 06:38:10;;;;;;;3.83;3.42;;;;;;;;;;4972992;28;20222;-83
2022/05/02 06:40:40;;;;;;;4.57;3.50;;;;;;;;;;4985050;28;20647;-84
2022/05/02 06:43:14;;;;;;;4.95;3.20;;;;;;;;;;4983707;28;20212;-83
2022/05/02 06:45:48;;;;;;;5.05;3.67;;;;;;;;;;4968662;28;20198;-85
2022/05/02 06:48:39;;;;;;;3.78;3.13;;;;;;;;;;4986761;28;20257;-84
2022/05/02 06:51:07;;;;;;;6.25;3.70;;;;;;;;;;4956263;28;20216;-84
2022/05/02 06:53:44;;;;;;;3.53;3.10;;;;;;;;;;4976483;28;20213;-84
2022/05/02 06:56:15;;;;;;;3.63;3.30;;;;;;;;;;4969713;28;20204;-86
2022/05/02 06:58:49;;;;;;;3.25;2.95;;;;;;;;;;4977214;28;20237;-83
2022/05/02 07:01:25;;;;;;;4.57;3.50;;;;;;;;;;4967335;28;20217;-86
2022/05/02 07:04:10;;;;;;;3.17;2.88;;;;;;;;;;4974173;28;20248;-85
2022/05/02 07:06:45;;;;;;;3.00;2.80;;;;;;;;;;4965660;28;20197;-84
2022/05/02 07:09:18;;;;;;;2.92;2.63;;;;;;;;;;4978124;28;20205;-84
2022/05/02 07:11:48;;;;;;;2.85;2.63;;;;;;;;;;4983165;28;20209;-85
2022/05/02 07:14:18;;;;;;;3.33;3.03;;;;;;;;;;4966557;28;20194;-84
2022/05/02 07:16:49;;;;;;;3.58;2.80;;;;;;;;;;4969687;28;20213;-83
2022/05/02 07:19:27;;;;;;;4.80;2.67;;;;;;;;;;4975422;28;20211;-83
2022/05/02 07:21:56;;;;;;;3.38;3.08;;;;;;;;;;4986052;28;20637;-79
2022/05/02 07:24:33;;;;;;;2.72;2.50;;;;;;;;;;4977114;28;20201;-83
2022/05/02 07:27:02;;;;;;;3.20;2.90;;;;;;;;;;4981508;28;20202;-81
2022/05/02 07:29:32;;;;;;;3.47;2.88;;;;;;;;;;4968476;28;20697;-86
2022/05/02 07:32:00;;;;;;;2.53;2.30;;;;;;;;;;4979893;28;20663;-82
2022/05/02 07:34:28;;;;;;;2.78;2.53;;;;;;;;;;4977018;28;20193;-83
2022/05/02 07:36:55;;;;;;;3.17;2.90;;;;;;;;;;4975759;28;20209;-83
2022/05/02 07:39:23;;;;;;;2.63;2.42;;;;;;;;;;4977587;28;20197;-83
2022/05/02 07:41:51;;;;;;;2.72;2.53;;;;;;;;;;4971417;28;20234;-83
2022/05/02 07:44:20;;;;;;;4.20;2.38;;;;;;;;;;4983677;28;20202;-83
2022/05/02 07:46:47;;;;;;;2.92;2.63;;;;;;;;;;4974301;28;20686;-83
2022/05/02 07:49:15;;;;;;;2.42;2.22;;;;;;;;;;4975334;28;20675;-83
2022/05/02 07:51:46;;;;;;;2.80;2.60;;;;;;;;;;4984332;28;20648;-83
2022/05/02 07:54:15;;;;;;;3.08;2.78;;;;;;;;;;4976782;28;20641;-85
2022/05/02 07:56:43;;;;;;;3.97;3.28;;;;;;;;;;4974491;28;20197;-83
2022/05/02 07:59:11;;;;;;;2.70;1.90;;;;;;;;;;4978856;28;20201;-84
2022/05/02 08:01:40;;;;;;;2.47;2.28;;;;;;;;;;4971902;28;20204;-83
2022/05/02 08:04:07;;;;;;;2.55;2.35;;;;;;;;;;4977364;28;20558;-82
2022/05/02 08:06:46;;;;;;;1.92;1.70;;;;;;;;;;4986810;28;20197;-82
2022/05/02 08:09:22;;;;;;;2.70;2.50;;;;;;;;;;4978959;28;20248;-84
2022/05/02 08:11:55;;;;;;;2.95;2.67;;;;;;;;;;4981317;28;20221;-81
2022/05/02 08:14:26;;;;;;;2.90;2.38;;;;;;;;;;4976556;28;20205;-81
2022/05/02 08:16:57;;;;;;;3.45;2.58;;;;;;;;;;4984350;28;20197;-82
2022/05/02 08:19:31;;;;;;;4.00;2.67;;;;;;;;;;4979689;28;20230;-80
2022/05/02 08:27:38;;;;;;;2.95;2.75;;;;;;;;;;4975152;28;20203;-80
2022/05/02 08:30:08;;;;;;;3.00;2.67;;;;;;;;;;4971368;28;20205;-81
2022/05/02 08:32:42;;;;;;;2.97;1.80;;;;;;;;;;4963125;28;20216;-80
2022/05/02 08:35:10;;;;;;;5.65;3.15;;;;;;;;;;4982386;28;20200;-81
2022/05/02 08:38:02;;;;;;;4.57;2.65;;;;;;;;;;4971779;28;20206;-80
2022/05/02 08:40:49;;;;;;;3.03;1.92;;;;;;;;;;4912669;28;20671;-81
2022/05/02 08:43:43;;;;;;;2.25;2.05;;;;;;;;;;4981979;28;20572;-81
2022/05/02 08:46:25;;;;;;;2.55;2.20;;;;;;;;;;4926959;28;20210;-84
2022/05/02 08:52:08;;;;;;;3.20;1.85;;;;;;;;;;4970161;28;20220;-80
2022/05/02 08:54:54;;;;;;;2.63;1.90;;;;;;;;;;4972426;28;20207;-80
2022/05/02 08:57:36;;;;;;;4.75;3.03;;;;;;;;;;4971806;28;20201;-81
2022/05/02 09:00:07;;;;;;;4.15;2.70;;;;;;;;;;4929543;28;20620;-83
2022/05/02 09:02:52;;;;;;;2.50;2.17;;;;;;;;;;4976795;28;20193;-81
2022/05/02 09:05:40;;;;;;;3.80;2.88;;;;;;;;;;4977801;28;20201;-80
2022/05/02 09:08:12;;;;;;;2.88;2.50;;;;;;;;;;4970482;28;20263;-80
2022/05/02 09:10:49;;;;;;;4.72;2.47;;;;;;;;;;4971150;28;20634;-81
2022/05/02 09:13:35;;;;;;;2.40;2.20;;;;;;;;;;4974584;28;20220;-81
2022/05/02 09:16:18;;;;;;;4.32;2.80;;;;;;;;;;4970999;28;20205;-81
2022/05/02 09:19:01;;;;;;;3.15;2.90;;;;;;;;;;4977818;28;20208;-80
2022/05/02 09:21:40;;;;;;;7.43;2.50;;;;;;;;;;4975353;28;20674;-81
2022/05/02 09:24:27;;;;;;;3.50;2.70;;;;;;;;;;4971206;28;20212;-81
2022/05/02 09:27:14;;;;;;;5.38;2.95;;;;;;;;;;4963629;28;20201;-81
2022/05/02 09:29:57;;;;;;;3.70;3.03;;;;;;;;;;4973646;28;20201;-80
2022/05/02 09:32:35;;;;;;;3.95;3.55;;;;;;;;;;4974970;28;20222;-82
2022/05/02 09:35:04;;;;;;;2.63;2.42;;;;;;;;;;4971262;28;20221;-81
2022/05/02 09:37:39;;;;;;;2.85;1.95;;;;;;;;;;4966259;28;20202;-82
2022/05/02 09:40:10;;;;;;;3.45;2.47;;;;;;;;;;4968345;28;20696;-81
2022/05/02 09:42:45;;;;;;;2.78;2.58;;;;;;;;;;4970529;28;20544;-80
2022/05/02 09:50:59;;;;;;;3.20;2.90;;;;;;;;;;4964116;28;20196;-80
2022/05/02 09:53:38;;;;;;;2.80;2.60;;;;;;;;;;4968715;28;20706;-79
2022/05/02 09:58:55;;;;;;;2.95;2.75;;;;;;;;;;4979715;28;20224;-80
2022/05/02 10:01:25;;;;;;;2.85;2.50;;;;;;;;;;4955104;28;20296;-80
2022/05/02 10:04:00;;;;;;;2.85;2.30;;;;;;;;;;4960817;28;20735;-80
2022/05/02 10:06:31;;;;;;;7.60;3.15;;;;;;;;;;4977159;28;20201;-80
2022/05/02 10:09:03;;;;;;;4.10;3.70;;;;;;;;;;4975753;28;20243;-81
2022/05/02 10:11:36;;;;;;;2.83;2.63;;;;;;;;;;4975968;28;20613;-82
2022/05/02 10:14:12;;;;;;;3.45;2.95;;;;;;;;;;4963255;28;20618;-81
2022/05/02 10:16:46;;;;;;;4.18;2.90;;;;;;;;;;4974568;28;20220;-81
2022/05/02 10:19:21;;;;;;;2.63;2.42;;;;;;;;;;4978008;28;20211;-79
2022/05/02 10:22:04;;;;;;;3.28;2.97;;;;;;;;;;4977048;28;20739;-79
2022/05/02 10:24:44;;;;;;;4.25;3.30;;;;;;;;;;4968285;28;20238;-80
2022/05/02 10:27:16;;;;;;;4.32;3.30;;;;;;;;;;4966202;28;20595;-80
2022/05/02 10:29:58;;;;;;;5.07;2.95;;;;;;;;;;4970448;28;20202;-82
2022/05/02 10:32:34;;;;;;;3.72;3.30;;;;;;;;;;4967878;28;20251;-80
2022/05/02 10:35:03;;;;;;;2.58;2.38;;;;;;;;;;4954254;28;20220;-80
2022/05/02 10:37:34;;;;;;;2.88;2.63;;;;;;;;;;4962501;28;20206;-82
2022/05/02 10:40:08;;;;;;;3.72;3.38;;;;;;;;;;4967405;28;20242;-82
2022/05/02 10:42:35;;;;;;;3.00;2.80;;;;;;;;;;4984322;28;20715;-80
2022/05/02 10:45:05;;;;;;;5.10;3.80;;;;;;;;;;4975025;28;20726;-80
2022/05/02 10:47:39;;;;;;;3.83;2.80;;;;;;;;;;4969813;28;20206;-80
2022/05/02 10:50:09;;;;;;;6.07;5.05;;;;;;;;;;4982516;28;20195;-82
2022/05/02 10:52:44;;;;;;;6.05;4.43;;;;;;;;;;4979570;28;20218;-79
2022/05/02 10:55:14;;;;;;;3.63;3.33;;;;;;;;;;4968048;28;20201;-82
2022/05/02 10:57:42;;;;;;;6.00;3.50;;;;;;;;;;4979642;28;20220;-83
2022/05/02 11:00:12;;;;;;;4.90;3.17;;;;;;;;;;4977662;28;20208;-82
2022/05/02 11:02:52;;;;;;;4.07;3.20;;;;;;;;;;4989073;28;20226;-82
2022/05/02 11:05:21;;;;;;;9.02;4.95;;;;;;;;;;4978854;28;20204;-82
2022/05/02 11:07:54;;;;;;;5.68;4.30;;;;;;;;;;4965275;28;20202;-82
2022/05/02 11:10:23;;;;;;;4.45;4.05;;;;;;;;;;4969916;28;20320;-83
2022/05/02 11:12:54;;;;;;;4.00;3.60;;;;;;;;;;4970546;28;20226;-81
2022/05/02 11:15:24;;;;;;;4.38;3.53;;;;;;;;;;4971665;28;20197;-81
2022/05/02 11:18:07;;;;;;;5.63;5.13;;;;;;;;;;4967725;28;20202;-81
2022/05/02 11:20:42;;;;;;;3.50;3.20;;;;;;;;;;4956665;28;20209;-81
2022/05/02 11:23:19;;;;;;;3.65;3.35;;;;;;;;;;4969914;28;20854;-81
2022/05/02 11:25:54;;;;;;;5.10;4.10;;;;;;;;;;4964659;28;20244;-81
2022/05/02 11:28:25;;;;;;;4.40;4.00;;;;;;;;;;4974891;28;20200;-80
2022/05/02 11:30:57;;;;;;;4.10;3.80;;;;;;;;;;4956938;28;20569;-79
2022/05/02 11:33:27;;;;;;;4.28;3.88;;;;;;;;;;4987173;28;20239;-81
2022/05/02 11:35:56;;;;;;;4.85;3.90;;;;;;;;;;4973424;28;20300;-79
2022/05/02 11:38:30;;;;;;;4.30;3.90;;;;;;;;;;4969897;28;20213;-81
2022/05/02 11:41:00;;;;;;;4.28;3.47;;;;;;;;;;4980902;28;20283;-81
2022/05/02 11:43:31;;;;;;;5.28;3.72;;;;;;;;;;4978521;28;20205;-82
2022/05/02 11:46:04;;;;;;;4.68;4.28;;;;;;;;;;4969028;28;20208;-82
2022/05/02 11:48:53;;;;;;;9.20;4.65;;;;;;;;;;4966144;28;20202;-83
2022/05/02 11:51:29;;;;;;;3.78;3.47;;;;;;;;;;4962975;28;20218;-81
2022/05/02 11:53:59;;;;;;;4.22;3.80;;;;;;;;;;4977310;28;20236;-82
2022/05/02 11:56:41;;;;;;;12.27;4.38;;;;;;;;;;4970078;28;20231;-81
2022/05/02 11:59:13;;;;;;;6.32;4.13;;;;;;;;;;4962741;28;20261;-81
2022/05/02 12:01:42;;;;;;;5.18;3.70;;;;;;;;;;4973478;28;20201;-81
2022/05/02 12:04:11;;;;;;;6.70;4.38;;;;;;;;;;4973788;28;20197;-81
2022/05/02 12:06:39;;;;;;;7.10;4.97;;;;;;;;;;4973537;28;20205;-82
2022/05/02 12:09:08;;;;;;;3.90;3.42;;;;;;;;;;4984039;28;20212;-80
2022/05/02 12:11:52;;;;;;;5.05;4.50;;;;;;;;;;4972161;28;20211;-80
2022/05/02 12:14:20;;;;;;;4.88;4.38;;;;;;;;;;4974679;28;20217;-81
2022/05/02 12:17:02;;;;;;;5.10;4.40;;;;;;;;;;4978618;28;20220;-82
2022/05/02 12:19:30;;;;;;;4.50;4.10;;;;;;;;;;4982353;28;20205;-81
2022/05/02 12:21:58;;;;;;;5.57;4.38;;;;;;;;;;4975447;28;20209;-81
2022/05/02 12:24:28;;;;;;;9.18;4.63;;;;;;;;;;4968462;28;20213;-81
2022/05/02 12:26:57;;;;;;;6.00;4.40;;;;;;;;;;4965328;28;20641;-80
2022/05/02 12:29:27;;;;;;;4.05;3.70;;;;;;;;;;4972867;28;20645;-79
2022/05/02 12:31:56;;;;;;;5.82;4.25;;;;;;;;;;4968396;28;20206;-80
2022/05/02 12:34:24;;;;;;;6.35;4.18;;;;;;;;;;4976826;28;20243;-79
2022/05/02 12:36:54;;;;;;;5.47;4.18;;;;;;;;;;4969580;28;20659;-78
2022/05/02 12:39:24;;;;;;;4.25;3.85;;;;;;;;;;4967013;28;20533;-79
2022/05/02 12:41:54;;;;;;;5.00;4.22;;;;;;;;;;4979938;28;20236;-79
2022/05/02 12:44:26;;;;;;;5.00;4.50;;;;;;;;;;4967795;28;20217;-80
2022/05/02 12:46:54;;;;;;;8.43;4.47;;;;;;;;;;4975628;28;20236;-79
2022/05/02 12:49:24;;;;;;;6.20;4.60;;;;;;;;;;4978715;28;20701;-81
2022/05/02 12:51:52;;;;;;;5.15;4.65;;;;;;;;;;4966389;28;20217;-81
2022/05/02 12:54:22;;;;;;;5.68;4.72;;;;;;;;;;4969423;28;20240;-83
2022/05/02 13:02:31;;;;;;;4.05;3.50;;;;;;;;;;4973466;28;20224;-82
2022/05/02 13:04:58;;;;;;;4.18;3.78;;;;;;;;;;4971195;28;20198;-82
2022/05/02 13:07:26;;;;;;;4.25;3.95;;;;;;;;;;4964706;28;20660;-83
2022/05/02 13:09:54;;;;;;;3.80;3.50;;;;;;;;;;4979932;28;20582;-82
2022/05/02 13:12:22;;;;;;;4.82;4.30;;;;;;;;;;4989095;28;20216;-81
2022/05/02 13:14:52;;;;;;;7.85;4.10;;;;;;;;;;4965114;28;20264;-83
2022/05/02 13:17:22;;;;;;;5.85;3.97;;;;;;;;;;4979288;28;20259;-85
2022/05/02 13:19:49;;;;;;;5.35;4.47;;;;;;;;;;4976052;28;20248;-84
2022/05/02 13:22:17;;;;;;;4.32;3.60;;;;;;;;;;4974685;28;20213;-84
2022/05/02 13:24:53;;;;;;;5.10;3.50;;;;;;;;;;4967019;28;20218;-84
2022/05/02 13:27:24;;;;;;;6.47;4.50;;;;;;;;;;4977677;28;20229;-85
2022/05/02 13:30:00;;;;;;;5.93;3.30;;;;;;;;;;4974944;28;20607;-84
2022/05/02 13:32:28;;;;;;;4.10;3.70;;;;;;;;;;4980986;28;20364;-85
2022/05/02 13:35:12;;;;;;;3.40;3.10;;;;;;;;;;4993119;28;20210;-85
2022/05/02 13:37:55;;;;;;;3.67;3.33;;;;;;;;;;4968399;28;20194;-85
2022/05/02 13:40:23;;;;;;;3.90;3.60;;;;;;;;;;4980458;28;20760;-85
2022/05/02 13:42:53;;;;;;;5.13;3.70;;;;;;;;;;4987377;28;20227;-85
2022/05/02 13:45:29;;;;;;;5.18;3.80;;;;;;;;;;4971831;28;20681;-85
2022/05/02 13:48:01;;;;;;;4.90;3.83;;;;;;;;;;4987569;28;20292;-85
2022/05/02 13:50:30;;;;;;;4.28;3.92;;;;;;;;;;4989319;28;20205;-84
2022/05/02 13:53:03;;;;;;;3.63;3.33;;;;;;;;;;4975024;28;20232;-84
2022/05/02 13:55:31;;;;;;;4.20;3.80;;;;;;;;;;4965973;28;20238;-84
2022/05/02 13:58:03;;;;;;;3.42;3.13;;;;;;;;;;4981464;28;20203;-81
2022/05/02 14:01:26;;;;;;;7.03;4.55;;;;;;;;;;4978172;28;20217;-83
2022/05/02 14:03:45;;;;;;;3.45;3.15;;;;;;;;;;4980294;28;20203;-83
2022/05/02 14:06:14;;;;;;;4.85;4.45;;;;;;;;;;4976954;28;20219;-83
2022/05/02 14:08:43;;;;;;;4.93;4.47;;;;;;;;;;4967835;28;20204;-82
2022/05/02 14:11:17;;;;;;;4.35;3.63;;;;;;;;;;4976730;28;20301;-83
2022/05/02 14:13:46;;;;;;;4.70;4.30;;;;;;;;;;4957609;28;20740;-83
2022/05/02 14:16:16;;;;;;;3.88;3.33;;;;;;;;;;4956258;28;20293;-85
2022/05/02 14:18:50;;;;;;;5.03;3.40;;;;;;;;;;4977248;28;20225;-84
2022/05/02 14:21:19;;;;;;;4.00;3.70;;;;;;;;;;4986119;28;20210;-83
2022/05/02 14:23:46;;;;;;;5.00;4.50;;;;;;;;;;4959038;28;20195;-82
2022/05/02 14:26:14;;;;;;;3.50;3.20;;;;;;;;;;4977630;28;20247;-83
2022/05/02 14:28:45;;;;;;;4.20;3.80;;;;;;;;;;4973348;28;20665;-84
2022/05/02 14:31:12;;;;;;;4.13;3.28;;;;;;;;;;4976787;28;20304;-84
2022/05/02 14:33:41;;;;;;;4.22;3.83;;;;;;;;;;4992130;28;20221;-84
2022/05/02 14:36:08;;;;;;;4.93;4.53;;;;;;;;;;4976838;28;20207;-85
2022/05/02 14:38:37;;;;;;;4.38;3.97;;;;;;;;;;4965850;28;20203;-84
2022/05/02 14:41:04;;;;;;;4.00;3.70;;;;;;;;;;4975970;28;20236;-84
2022/05/02 14:43:32;;;;;;;4.90;4.50;;;;;;;;;;4980567;28;20195;-83
2022/05/02 14:45:59;;;;;;;3.58;3.25;;;;;;;;;;4969796;28;20229;-84
2022/05/02 14:48:27;;;;;;;4.00;3.60;;;;;;;;;;4985503;28;20293;-83
2022/05/02 14:51:01;;;;;;;5.05;4.38;;;;;;;;;;4980048;28;20226;-84
2022/05/02 14:53:32;;;;;;;3.90;3.60;;;;;;;;;;4967223;28;20226;-83
2022/05/02 14:56:00;;;;;;;4.40;4.00;;;;;;;;;;4964105;28;20752;-82
2022/05/02 14:58:28;;;;;;;3.80;3.40;;;;;;;;;;4983874;28;20670;-82
2022/05/02 15:00:58;;;;;;;5.03;4.10;;;;;;;;;;4970739;28;20204;-85
2022/05/02 15:03:27;;;;;;;3.03;2.83;;;;;;;;;;4977858;28;20906;-85
2022/05/02 15:05:57;;;;;;;4.05;3.72;;;;;;;;;;4971642;28;20227;-82
2022/05/02 15:08:42;;;;;;;4.35;3.42;;;;;;;;;;4968840;28;20219;-81
2022/05/02 15:11:16;;;;;;;3.65;3.35;;;;;;;;;;4973352;28;20265;-84
2022/05/02 15:13:57;;;;;;;3.55;3.28;;;;;;;;;;4979164;28;20712;-82
2022/05/02 15:16:26;;;;;;;3.72;3.42;;;;;;;;;;4973086;28;20280;-83
2022/05/02 15:22:17;;;;;;;3.60;3.20;;;;;;;;;;4967796;28;20203;-83
2022/05/02 15:24:59;;;;;;;3.50;3.25;;;;;;;;;;4974569;28;20610;-84
2022/05/02 15:36:41;;;;;;;4.57;3.22;;;;;;;;;;4899144;29;20581;-83
2022/05/02 15:39:08;;;;;;;4.15;3.50;;;;;;;;;;4890887;29;20281;-83
2022/05/02 15:41:56;;;;;;;3.70;3.40;;;;;;;;;;4949401;28;20235;-83
2022/05/02 15:44:26;;;;;;;6.70;3.40;;;;;;;;;;4966342;28;20257;-83
2022/05/02 15:46:55;;;;;;;4.50;3.58;;;;;;;;;;4973498;28;20294;-83
2022/05/02 15:49:23;;;;;;;3.35;2.97;;;;;;;;;;4974678;28;20200;-83